sensor_id;sensor_type;location;lat;lon;timestamp;pressure;altitude;pressure_sealevel;temperature;humidity
58668;BME280;59852;43.086;25.634;2023-04-23T00:02:08;98913.38;;;7.75;82.83
58668;BME280;59852;43.086;25.634;2023-04-23T00:04:36;98913.47;;;7.74;83.00
58668;BME280;59852;43.086;25.634;2023-04-23T00:07:02;98907.19;;;7.78;82.79
58668;BME280;59852;43.086;25.634;2023-04-23T00:09:29;98909.16;;;7.59;82.46
58668;BME280;59852;43.086;25.634;2023-04-23T00:11:55;98911.50;;;7.47;82.29
58668;BME280;59852;43.086;25.634;2023-04-23T00:14:22;98902.78;;;7.48;82.86
58668;BME280;59852;43.086;25.634;2023-04-23T00:16:47;98904.88;;;7.58;82.91
58668;BME280;59852;43.086;25.634;2023-04-23T00:19:13;98907.81;;;7.52;83.19
58668;BME280;59852;43.086;25.634;2023-04-23T00:21:38;98914.13;;;7.47;83.28
58668;BME280;59852;43.086;25.634;2023-04-23T00:24:03;98911.47;;;7.63;83.38
58668;BME280;59852;43.086;25.634;2023-04-23T00:26:29;98907.84;;;7.66;82.70
58668;BME280;59852;43.086;25.634;2023-04-23T00:28:54;98905.84;;;7.71;82.31
58668;BME280;59852;43.086;25.634;2023-04-23T00:31:20;98903.03;;;7.90;81.59
58668;BME280;59852;43.086;25.634;2023-04-23T00:33:46;98908.09;;;7.77;82.62
58668;BME280;59852;43.086;25.634;2023-04-23T00:36:11;98903.47;;;7.82;82.28
58668;BME280;59852;43.086;25.634;2023-04-23T00:38:37;98907.41;;;8.03;81.23
58668;BME280;59852;43.086;25.634;2023-04-23T00:41:02;98907.63;;;7.85;80.76
58668;BME280;59852;43.086;25.634;2023-04-23T00:43:27;98899.59;;;7.73;82.05
58668;BME280;59852;43.086;25.634;2023-04-23T00:45:53;98906.69;;;7.56;82.17
58668;BME280;59852;43.086;25.634;2023-04-23T00:48:18;98903.84;;;7.60;82.62
58668;BME280;59852;43.086;25.634;2023-04-23T00:50:45;98913.06;;;7.66;81.99
58668;BME280;59852;43.086;25.634;2023-04-23T00:53:10;98909.38;;;7.54;82.46
58668;BME280;59852;43.086;25.634;2023-04-23T00:55:35;98917.56;;;7.48;82.77
58668;BME280;59852;43.086;25.634;2023-04-23T00:58:01;98910.31;;;7.69;82.66
58668;BME280;59852;43.086;25.634;2023-04-23T01:00:26;98909.56;;;7.35;82.77
58668;BME280;59852;43.086;25.634;2023-04-23T01:02:51;98914.44;;;7.41;83.72
58668;BME280;59852;43.086;25.634;2023-04-23T01:05:18;98905.88;;;7.24;84.65
58668;BME280;59852;43.086;25.634;2023-04-23T01:07:44;98908.66;;;7.21;84.65
58668;BME280;59852;43.086;25.634;2023-04-23T01:10:10;98918.22;;;7.04;85.00
58668;BME280;59852;43.086;25.634;2023-04-23T01:12:36;98913.94;;;7.03;85.15
58668;BME280;59852;43.086;25.634;2023-04-23T01:15:02;98917.66;;;6.99;84.83
58668;BME280;59852;43.086;25.634;2023-04-23T01:17:27;98912.00;;;6.91;84.57
58668;BME280;59852;43.086;25.634;2023-04-23T01:19:53;98911.03;;;7.09;84.53
58668;BME280;59852;43.086;25.634;2023-04-23T01:22:18;98912.84;;;7.07;83.22
58668;BME280;59852;43.086;25.634;2023-04-23T01:24:44;98910.41;;;6.88;84.22
58668;BME280;59852;43.086;25.634;2023-04-23T01:27:09;98908.47;;;7.08;83.49
58668;BME280;59852;43.086;25.634;2023-04-23T01:29:35;98906.22;;;7.33;83.01
58668;BME280;59852;43.086;25.634;2023-04-23T01:32:01;98902.88;;;7.15;83.13
58668;BME280;59852;43.086;25.634;2023-04-23T01:34:27;98910.59;;;7.01;84.26
58668;BME280;59852;43.086;25.634;2023-04-23T01:36:54;98917.69;;;6.98;84.30
58668;BME280;59852;43.086;25.634;2023-04-23T01:39:20;98904.81;;;7.12;83.42
58668;BME280;59852;43.086;25.634;2023-04-23T01:41:45;98912.28;;;7.02;83.73
58668;BME280;59852;43.086;25.634;2023-04-23T01:44:11;98918.47;;;7.00;83.68
58668;BME280;59852;43.086;25.634;2023-04-23T01:46:36;98911.66;;;6.97;83.23
58668;BME280;59852;43.086;25.634;2023-04-23T01:49:02;98914.69;;;6.89;83.42
58668;BME280;59852;43.086;25.634;2023-04-23T01:51:28;98904.78;;;6.96;83.05
58668;BME280;59852;43.086;25.634;2023-04-23T01:53:53;98912.59;;;6.96;83.00
58668;BME280;59852;43.086;25.634;2023-04-23T01:56:22;98916.47;;;6.89;82.88
58668;BME280;59852;43.086;25.634;2023-04-23T01:58:49;98926.25;;;6.84;82.66
58668;BME280;59852;43.086;25.634;2023-04-23T02:01:15;98915.28;;;6.95;82.21
58668;BME280;59852;43.086;25.634;2023-04-23T02:03:41;98921.56;;;6.90;81.90
58668;BME280;59852;43.086;25.634;2023-04-23T02:06:06;98922.56;;;6.88;82.71
58668;BME280;59852;43.086;25.634;2023-04-23T02:08:32;98927.25;;;6.81;81.91
58668;BME280;59852;43.086;25.634;2023-04-23T02:10:57;98925.59;;;6.80;82.82
58668;BME280;59852;43.086;25.634;2023-04-23T02:13:22;98928.59;;;6.73;81.82
58668;BME280;59852;43.086;25.634;2023-04-23T02:15:47;98927.38;;;6.63;82.88
58668;BME280;59852;43.086;25.634;2023-04-23T02:18:13;98932.38;;;6.50;83.24
58668;BME280;59852;43.086;25.634;2023-04-23T02:20:38;98927.88;;;6.36;83.23
58668;BME280;59852;43.086;25.634;2023-04-23T02:23:06;98931.09;;;6.41;83.13
58668;BME280;59852;43.086;25.634;2023-04-23T02:25:31;98924.22;;;6.40;83.21
58668;BME280;59852;43.086;25.634;2023-04-23T02:27:57;98929.81;;;6.32;83.78
58668;BME280;59852;43.086;25.634;2023-04-23T02:30:23;98939.75;;;6.57;82.13
58668;BME280;59852;43.086;25.634;2023-04-23T02:32:49;98927.19;;;6.50;82.11
58668;BME280;59852;43.086;25.634;2023-04-23T02:35:15;98929.56;;;6.37;82.88
58668;BME280;59852;43.086;25.634;2023-04-23T02:37:40;98921.63;;;6.40;82.39
58668;BME280;59852;43.086;25.634;2023-04-23T02:40:06;98918.13;;;6.24;82.72
58668;BME280;59852;43.086;25.634;2023-04-23T02:42:32;98921.03;;;6.18;83.65
58668;BME280;59852;43.086;25.634;2023-04-23T02:44:57;98923.47;;;6.21;83.55
58668;BME280;59852;43.086;25.634;2023-04-23T02:47:22;98925.53;;;6.14;83.70
58668;BME280;59852;43.086;25.634;2023-04-23T02:49:48;98924.16;;;6.07;84.05
58668;BME280;59852;43.086;25.634;2023-04-23T02:52:13;98926.84;;;6.23;83.97
58668;BME280;59852;43.086;25.634;2023-04-23T02:54:38;98926.31;;;6.16;84.12
58668;BME280;59852;43.086;25.634;2023-04-23T02:57:04;98931.66;;;6.13;83.94
58668;BME280;59852;43.086;25.634;2023-04-23T02:59:30;98925.53;;;6.31;83.67
58668;BME280;59852;43.086;25.634;2023-04-23T03:01:55;98930.72;;;6.31;83.66
58668;BME280;59852;43.086;25.634;2023-04-23T03:04:21;98928.00;;;6.00;84.17
58668;BME280;59852;43.086;25.634;2023-04-23T03:06:46;98929.22;;;6.10;84.68
58668;BME280;59852;43.086;25.634;2023-04-23T03:09:12;98932.72;;;6.26;84.43
58668;BME280;59852;43.086;25.634;2023-04-23T03:11:37;98926.38;;;6.32;84.59
58668;BME280;59852;43.086;25.634;2023-04-23T03:14:02;98930.44;;;6.03;84.78
58668;BME280;59852;43.086;25.634;2023-04-23T03:16:28;98932.19;;;5.66;85.39
58668;BME280;59852;43.086;25.634;2023-04-23T03:18:54;98937.31;;;6.04;84.88
58668;BME280;59852;43.086;25.634;2023-04-23T03:21:19;98932.91;;;5.87;84.24
58668;BME280;59852;43.086;25.634;2023-04-23T03:23:45;98940.81;;;6.03;84.20
58668;BME280;59852;43.086;25.634;2023-04-23T03:26:10;98946.19;;;6.00;83.57
58668;BME280;59852;43.086;25.634;2023-04-23T03:28:35;98935.16;;;5.95;84.00
58668;BME280;59852;43.086;25.634;2023-04-23T03:31:00;98945.31;;;6.17;83.25
58668;BME280;59852;43.086;25.634;2023-04-23T03:33:26;98942.28;;;5.90;83.74
58668;BME280;59852;43.086;25.634;2023-04-23T03:35:51;98944.03;;;5.89;83.90
58668;BME280;59852;43.086;25.634;2023-04-23T03:38:16;98946.84;;;6.21;83.24
58668;BME280;59852;43.086;25.634;2023-04-23T03:40:42;98950.44;;;6.18;84.27
58668;BME280;59852;43.086;25.634;2023-04-23T03:43:07;98951.44;;;6.33;83.94
58668;BME280;59852;43.086;25.634;2023-04-23T03:45:33;98958.59;;;6.28;84.41
58668;BME280;59852;43.086;25.634;2023-04-23T03:47:58;98959.22;;;6.50;83.79
58668;BME280;59852;43.086;25.634;2023-04-23T03:50:23;98956.44;;;6.53;83.83
58668;BME280;59852;43.086;25.634;2023-04-23T03:52:48;98954.94;;;6.49;84.50
58668;BME280;59852;43.086;25.634;2023-04-23T03:55:14;98960.88;;;6.51;83.62
58668;BME280;59852;43.086;25.634;2023-04-23T03:57:40;98960.53;;;6.24;84.80
58668;BME280;59852;43.086;25.634;2023-04-23T04:00:05;98958.38;;;6.32;84.27
58668;BME280;59852;43.086;25.634;2023-04-23T04:02:40;98962.91;;;6.12;85.42
58668;BME280;59852;43.086;25.634;2023-04-23T04:05:05;98962.56;;;6.18;85.01
58668;BME280;59852;43.086;25.634;2023-04-23T04:07:31;98967.56;;;6.22;85.34
58668;BME280;59852;43.086;25.634;2023-04-23T04:09:57;98968.84;;;6.14;84.95
58668;BME280;59852;43.086;25.634;2023-04-23T04:12:23;98970.31;;;6.02;84.62
58668;BME280;59852;43.086;25.634;2023-04-23T04:14:48;98973.09;;;5.97;84.79
58668;BME280;59852;43.086;25.634;2023-04-23T04:17:13;98977.88;;;6.24;84.19
58668;BME280;59852;43.086;25.634;2023-04-23T04:19:40;98975.44;;;6.21;83.04
58668;BME280;59852;43.086;25.634;2023-04-23T04:22:05;98982.69;;;6.31;81.73
58668;BME280;59852;43.086;25.634;2023-04-23T04:24:31;98973.88;;;6.69;81.12
58668;BME280;59852;43.086;25.634;2023-04-23T04:26:57;98975.47;;;6.71;81.78
58668;BME280;59852;43.086;25.634;2023-04-23T04:29:22;98977.97;;;6.73;83.02
58668;BME280;59852;43.086;25.634;2023-04-23T04:31:48;98969.00;;;7.11;80.90
58668;BME280;59852;43.086;25.634;2023-04-23T04:34:13;98971.94;;;7.21;78.85
58668;BME280;59852;43.086;25.634;2023-04-23T04:36:39;98974.03;;;7.14;78.97
58668;BME280;59852;43.086;25.634;2023-04-23T04:39:05;98973.28;;;7.12;79.07
58668;BME280;59852;43.086;25.634;2023-04-23T04:41:31;98980.75;;;7.34;78.08
58668;BME280;59852;43.086;25.634;2023-04-23T04:43:56;98975.72;;;7.47;77.20
58668;BME280;59852;43.086;25.634;2023-04-23T04:46:22;98984.88;;;7.38;77.34
58668;BME280;59852;43.086;25.634;2023-04-23T04:48:49;98980.00;;;7.32;77.63
58668;BME280;59852;43.086;25.634;2023-04-23T04:51:15;98975.63;;;7.80;76.63
58668;BME280;59852;43.086;25.634;2023-04-23T04:53:40;98979.44;;;8.04;76.14
58668;BME280;59852;43.086;25.634;2023-04-23T04:56:06;98978.16;;;8.12;74.83
58668;BME280;59852;43.086;25.634;2023-04-23T04:58:32;98981.69;;;8.11;74.93
58668;BME280;59852;43.086;25.634;2023-04-23T05:00:57;98981.66;;;7.96;75.77
58668;BME280;59852;43.086;25.634;2023-04-23T05:03:23;98989.09;;;8.32;74.69
58668;BME280;59852;43.086;25.634;2023-04-23T05:05:50;98982.19;;;8.47;74.28
58668;BME280;59852;43.086;25.634;2023-04-23T05:08:15;98986.78;;;8.58;74.51
58668;BME280;59852;43.086;25.634;2023-04-23T05:10:41;98995.00;;;8.80;74.00
58668;BME280;59852;43.086;25.634;2023-04-23T05:13:07;98988.22;;;9.06;72.88
58668;BME280;59852;43.086;25.634;2023-04-23T05:15:32;98987.72;;;9.14;72.50
58668;BME280;59852;43.086;25.634;2023-04-23T05:17:57;98986.31;;;9.23;72.18
58668;BME280;59852;43.086;25.634;2023-04-23T05:20:23;98990.78;;;9.35;71.46
58668;BME280;59852;43.086;25.634;2023-04-23T05:22:48;98985.44;;;9.51;70.70
58668;BME280;59852;43.086;25.634;2023-04-23T05:25:13;98979.53;;;9.61;70.45
58668;BME280;59852;43.086;25.634;2023-04-23T05:27:39;98990.56;;;9.52;70.50
58668;BME280;59852;43.086;25.634;2023-04-23T05:30:08;98985.53;;;9.49;70.99
58668;BME280;59852;43.086;25.634;2023-04-23T05:32:34;98989.56;;;9.40;71.39
58668;BME280;59852;43.086;25.634;2023-04-23T05:35:00;98991.78;;;9.46;70.45
58668;BME280;59852;43.086;25.634;2023-04-23T05:37:26;98992.72;;;9.45;71.58
58668;BME280;59852;43.086;25.634;2023-04-23T05:39:52;98990.75;;;9.49;71.65
58668;BME280;59852;43.086;25.634;2023-04-23T05:42:17;98996.97;;;8.77;73.02
58668;BME280;59852;43.086;25.634;2023-04-23T05:44:42;98997.16;;;8.44;74.30
58668;BME280;59852;43.086;25.634;2023-04-23T05:47:09;98995.00;;;9.09;73.49
58668;BME280;59852;43.086;25.634;2023-04-23T05:49:34;98992.47;;;9.36;72.50
58668;BME280;59852;43.086;25.634;2023-04-23T05:52:00;98995.84;;;9.09;73.56
58668;BME280;59852;43.086;25.634;2023-04-23T05:54:27;98994.63;;;9.15;74.20
58668;BME280;59852;43.086;25.634;2023-04-23T05:56:52;98990.59;;;9.38;73.67
58668;BME280;59852;43.086;25.634;2023-04-23T05:59:17;99003.59;;;9.66;72.76
58668;BME280;59852;43.086;25.634;2023-04-23T06:01:43;99006.94;;;9.68;71.73
58668;BME280;59852;43.086;25.634;2023-04-23T06:04:08;99007.63;;;9.58;73.16
58668;BME280;59852;43.086;25.634;2023-04-23T06:06:33;99004.69;;;9.76;72.31
58668;BME280;59852;43.086;25.634;2023-04-23T06:08:59;99007.56;;;9.72;72.56
58668;BME280;59852;43.086;25.634;2023-04-23T06:11:24;99003.66;;;9.79;72.36
58668;BME280;59852;43.086;25.634;2023-04-23T06:13:49;98997.63;;;9.91;73.12
58668;BME280;59852;43.086;25.634;2023-04-23T06:16:15;99007.63;;;9.58;73.89
58668;BME280;59852;43.086;25.634;2023-04-23T06:18:40;99001.91;;;9.92;73.67
58668;BME280;59852;43.086;25.634;2023-04-23T06:21:05;99012.72;;;10.00;72.25
58668;BME280;59852;43.086;25.634;2023-04-23T06:23:31;99005.44;;;10.05;73.07
58668;BME280;59852;43.086;25.634;2023-04-23T06:25:57;99003.00;;;10.02;73.13
58668;BME280;59852;43.086;25.634;2023-04-23T06:28:22;99003.16;;;10.14;72.86
58668;BME280;59852;43.086;25.634;2023-04-23T06:30:47;99001.44;;;10.00;72.93
58668;BME280;59852;43.086;25.634;2023-04-23T06:33:13;98993.69;;;10.25;72.28
58668;BME280;59852;43.086;25.634;2023-04-23T06:35:38;98992.16;;;10.48;71.40
58668;BME280;59852;43.086;25.634;2023-04-23T06:38:03;98995.84;;;10.46;71.24
58668;BME280;59852;43.086;25.634;2023-04-23T06:40:29;98992.38;;;10.58;71.51
58668;BME280;59852;43.086;25.634;2023-04-23T06:42:54;98990.31;;;10.76;71.10
58668;BME280;59852;43.086;25.634;2023-04-23T06:45:20;98995.00;;;10.96;70.94
58668;BME280;59852;43.086;25.634;2023-04-23T06:47:45;98986.94;;;11.12;70.24
58668;BME280;59852;43.086;25.634;2023-04-23T06:50:13;98992.88;;;11.27;70.08
58668;BME280;59852;43.086;25.634;2023-04-23T06:52:38;98992.94;;;11.51;69.45
58668;BME280;59852;43.086;25.634;2023-04-23T06:55:04;98987.97;;;11.59;68.78
58668;BME280;59852;43.086;25.634;2023-04-23T06:57:30;98978.50;;;11.69;68.40
58668;BME280;59852;43.086;25.634;2023-04-23T06:59:55;98977.69;;;11.81;67.92
58668;BME280;59852;43.086;25.634;2023-04-23T07:02:21;98978.84;;;12.01;66.73
58668;BME280;59852;43.086;25.634;2023-04-23T07:04:46;98978.34;;;12.20;65.90
58668;BME280;59852;43.086;25.634;2023-04-23T07:07:11;98985.41;;;12.30;65.73
58668;BME280;59852;43.086;25.634;2023-04-23T07:09:36;98988.66;;;12.45;64.69
58668;BME280;59852;43.086;25.634;2023-04-23T07:12:02;98982.00;;;12.63;63.81
58668;BME280;59852;43.086;25.634;2023-04-23T07:14:27;98985.28;;;12.78;63.36
58668;BME280;59852;43.086;25.634;2023-04-23T07:16:53;98978.72;;;12.95;63.18
58668;BME280;59852;43.086;25.634;2023-04-23T07:19:18;98975.13;;;13.07;61.58
58668;BME280;59852;43.086;25.634;2023-04-23T07:21:44;98976.47;;;13.24;60.68
58668;BME280;59852;43.086;25.634;2023-04-23T07:24:09;98982.19;;;13.52;59.80
58668;BME280;59852;43.086;25.634;2023-04-23T07:26:35;98976.56;;;13.67;56.63
58668;BME280;59852;43.086;25.634;2023-04-23T07:29:01;98976.00;;;13.85;56.22
58668;BME280;59852;43.086;25.634;2023-04-23T07:31:26;98977.84;;;14.05;57.51
58668;BME280;59852;43.086;25.634;2023-04-23T07:33:52;98975.72;;;13.56;54.10
58668;BME280;59852;43.086;25.634;2023-04-23T07:36:18;98978.06;;;14.13;55.24
58668;BME280;59852;43.086;25.634;2023-04-23T07:38:43;98976.31;;;14.02;52.04
58668;BME280;59852;43.086;25.634;2023-04-23T07:41:09;98977.22;;;14.45;52.82
58668;BME280;59852;43.086;25.634;2023-04-23T07:43:34;98969.97;;;14.58;51.95
58668;BME280;59852;43.086;25.634;2023-04-23T07:45:59;98964.09;;;14.33;50.53
58668;BME280;59852;43.086;25.634;2023-04-23T07:48:25;98976.19;;;14.78;52.03
58668;BME280;59852;43.086;25.634;2023-04-23T07:50:50;98971.34;;;14.83;50.90
58668;BME280;59852;43.086;25.634;2023-04-23T07:53:15;98966.63;;;15.07;50.14
58668;BME280;59852;43.086;25.634;2023-04-23T07:55:41;98965.78;;;15.37;49.12
58668;BME280;59852;43.086;25.634;2023-04-23T07:58:06;98966.03;;;15.25;46.33
58668;BME280;59852;43.086;25.634;2023-04-23T08:00:31;98956.69;;;15.61;47.06
58668;BME280;59852;43.086;25.634;2023-04-23T08:02:57;98952.72;;;15.86;47.59
58668;BME280;59852;43.086;25.634;2023-04-23T08:05:22;98958.56;;;15.99;47.10
58668;BME280;59852;43.086;25.634;2023-04-23T08:07:48;98951.59;;;15.88;47.88
58668;BME280;59852;43.086;25.634;2023-04-23T08:10:13;98950.63;;;16.28;46.73
58668;BME280;59852;43.086;25.634;2023-04-23T08:12:38;98951.06;;;16.23;46.80
58668;BME280;59852;43.086;25.634;2023-04-23T08:15:05;98953.00;;;16.12;46.00
58668;BME280;59852;43.086;25.634;2023-04-23T08:17:30;98943.84;;;16.16;46.43
58668;BME280;59852;43.086;25.634;2023-04-23T08:19:56;98942.16;;;16.34;46.46
58668;BME280;59852;43.086;25.634;2023-04-23T08:22:21;98940.78;;;16.20;44.79
58668;BME280;59852;43.086;25.634;2023-04-23T08:24:46;98937.28;;;16.29;41.82
58668;BME280;59852;43.086;25.634;2023-04-23T08:27:12;98938.28;;;16.19;41.91
58668;BME280;59852;43.086;25.634;2023-04-23T08:29:37;98935.03;;;16.63;41.83
58668;BME280;59852;43.086;25.634;2023-04-23T08:32:02;98933.47;;;16.71;41.36
58668;BME280;59852;43.086;25.634;2023-04-23T08:34:28;98934.16;;;16.82;41.12
58668;BME280;59852;43.086;25.634;2023-04-23T08:36:53;98945.84;;;16.70;40.39
58668;BME280;59852;43.086;25.634;2023-04-23T08:39:19;98928.28;;;16.88;39.08
58668;BME280;59852;43.086;25.634;2023-04-23T08:41:44;98928.34;;;17.06;40.04
58668;BME280;59852;43.086;25.634;2023-04-23T08:44:21;98928.66;;;17.03;38.87
58668;BME280;59852;43.086;25.634;2023-04-23T08:46:47;98926.28;;;16.53;41.63
58668;BME280;59852;43.086;25.634;2023-04-23T08:49:16;98919.81;;;16.85;40.21
58668;BME280;59852;43.086;25.634;2023-04-23T08:54:14;98915.38;;;16.85;38.34
58668;BME280;59852;43.086;25.634;2023-04-23T08:56:40;98913.03;;;17.10;40.38
58668;BME280;59852;43.086;25.634;2023-04-23T08:59:06;98905.09;;;17.37;39.89
58668;BME280;59852;43.086;25.634;2023-04-23T09:01:32;98908.22;;;17.68;39.49
58668;BME280;59852;43.086;25.634;2023-04-23T09:03:57;98905.66;;;17.41;38.28
58668;BME280;59852;43.086;25.634;2023-04-23T09:06:23;98898.44;;;17.61;39.35
58668;BME280;59852;43.086;25.634;2023-04-23T09:08:49;98904.47;;;17.53;40.34
58668;BME280;59852;43.086;25.634;2023-04-23T09:11:15;98891.31;;;17.79;40.58
58668;BME280;59852;43.086;25.634;2023-04-23T09:13:41;98896.47;;;17.98;40.44
58668;BME280;59852;43.086;25.634;2023-04-23T09:16:06;98898.78;;;17.66;39.88
58668;BME280;59852;43.086;25.634;2023-04-23T09:18:31;98893.06;;;17.88;39.97
58668;BME280;59852;43.086;25.634;2023-04-23T09:20:57;98893.50;;;17.66;39.68
58668;BME280;59852;43.086;25.634;2023-04-23T09:23:22;98885.94;;;17.53;39.60
58668;BME280;59852;43.086;25.634;2023-04-23T09:25:48;98887.78;;;17.88;38.69
58668;BME280;59852;43.086;25.634;2023-04-23T09:28:13;98890.81;;;18.11;37.48
58668;BME280;59852;43.086;25.634;2023-04-23T09:30:43;98887.44;;;18.09;36.46
58668;BME280;59852;43.086;25.634;2023-04-23T09:33:11;98881.31;;;18.26;35.58
58668;BME280;59852;43.086;25.634;2023-04-23T09:35:37;98881.91;;;17.49;36.04
58668;BME280;59852;43.086;25.634;2023-04-23T09:38:03;98878.69;;;16.82;35.85
58668;BME280;59852;43.086;25.634;2023-04-23T09:40:31;98881.09;;;17.03;37.36
58668;BME280;59852;43.086;25.634;2023-04-23T09:42:57;98875.06;;;17.56;35.69
58668;BME280;59852;43.086;25.634;2023-04-23T09:45:22;98865.59;;;18.07;36.10
58668;BME280;59852;43.086;25.634;2023-04-23T09:47:54;98873.22;;;16.94;38.22
58668;BME280;59852;43.086;25.634;2023-04-23T09:52:57;98871.06;;;16.13;39.24
58668;BME280;59852;43.086;25.634;2023-04-23T09:55:29;98873.31;;;17.02;37.69
58668;BME280;59852;43.086;25.634;2023-04-23T09:57:55;98875.81;;;17.66;37.30
58668;BME280;59852;43.086;25.634;2023-04-23T10:00:20;98864.19;;;16.86;37.97
58668;BME280;59852;43.086;25.634;2023-04-23T10:02:47;98868.91;;;16.46;38.78
58668;BME280;59852;43.086;25.634;2023-04-23T10:05:13;98866.84;;;16.40;40.28
58668;BME280;59852;43.086;25.634;2023-04-23T10:07:39;98871.19;;;16.21;41.50
58668;BME280;59852;43.086;25.634;2023-04-23T10:10:05;98864.63;;;17.09;39.58
58668;BME280;59852;43.086;25.634;2023-04-23T10:12:30;98855.78;;;17.64;38.90
58668;BME280;59852;43.086;25.634;2023-04-23T10:14:56;98852.28;;;17.28;39.02
58668;BME280;59852;43.086;25.634;2023-04-23T10:17:23;98855.66;;;16.65;38.68
58668;BME280;59852;43.086;25.634;2023-04-23T10:19:49;98844.41;;;16.90;41.66
58668;BME280;59852;43.086;25.634;2023-04-23T10:22:14;98853.94;;;17.92;36.14
58668;BME280;59852;43.086;25.634;2023-04-23T10:24:40;98852.94;;;18.19;38.68
58668;BME280;59852;43.086;25.634;2023-04-23T10:27:09;98846.97;;;17.91;37.93
58668;BME280;59852;43.086;25.634;2023-04-23T10:29:35;98846.72;;;18.02;37.25
58668;BME280;59852;43.086;25.634;2023-04-23T10:32:01;98835.47;;;18.52;35.64
58668;BME280;59852;43.086;25.634;2023-04-23T10:34:28;98835.72;;;18.15;35.58
58668;BME280;59852;43.086;25.634;2023-04-23T10:36:54;98833.38;;;18.63;36.50
58668;BME280;59852;43.086;25.634;2023-04-23T10:39:19;98826.47;;;18.71;36.31
58668;BME280;59852;43.086;25.634;2023-04-23T10:41:46;98818.03;;;18.75;34.76
58668;BME280;59852;43.086;25.634;2023-04-23T10:44:12;98803.22;;;19.07;35.08
58668;BME280;59852;43.086;25.634;2023-04-23T10:46:45;98809.94;;;18.77;35.72
58668;BME280;59852;43.086;25.634;2023-04-23T10:49:14;98811.78;;;18.84;35.99
58668;BME280;59852;43.086;25.634;2023-04-23T10:51:40;98821.56;;;17.44;37.85
58668;BME280;59852;43.086;25.634;2023-04-23T10:54:09;98824.63;;;17.40;38.07
58668;BME280;59852;43.086;25.634;2023-04-23T10:56:37;98814.44;;;17.27;37.97
58668;BME280;59852;43.086;25.634;2023-04-23T10:59:07;98811.97;;;17.61;36.56
58668;BME280;59852;43.086;25.634;2023-04-23T11:01:33;98807.19;;;18.00;36.00
58668;BME280;59852;43.086;25.634;2023-04-23T11:03:58;98807.41;;;18.67;35.98
58668;BME280;59852;43.086;25.634;2023-04-23T11:11:52;98794.78;;;19.03;34.75
58668;BME280;59852;43.086;25.634;2023-04-23T11:14:18;98780.88;;;19.01;35.65
58668;BME280;59852;43.086;25.634;2023-04-23T11:16:44;98785.59;;;19.40;35.55
58668;BME280;59852;43.086;25.634;2023-04-23T11:19:09;98779.41;;;19.15;34.87
58668;BME280;59852;43.086;25.634;2023-04-23T11:24:21;98786.09;;;19.92;34.17
58668;BME280;59852;43.086;25.634;2023-04-23T11:26:47;98778.47;;;19.73;34.04
58668;BME280;59852;43.086;25.634;2023-04-23T11:29:15;98781.59;;;18.69;36.46
58668;BME280;59852;43.086;25.634;2023-04-23T11:31:42;98781.50;;;18.27;35.70
58668;BME280;59852;43.086;25.634;2023-04-23T11:34:07;98780.81;;;17.91;36.58
58668;BME280;59852;43.086;25.634;2023-04-23T11:36:33;98781.66;;;17.91;36.32
58668;BME280;59852;43.086;25.634;2023-04-23T11:38:59;98773.25;;;18.64;34.52
58668;BME280;59852;43.086;25.634;2023-04-23T11:41:27;98780.13;;;18.15;34.39
58668;BME280;59852;43.086;25.634;2023-04-23T11:43:54;98784.06;;;17.85;35.74
58668;BME280;59852;43.086;25.634;2023-04-23T11:46:20;98770.59;;;18.64;34.98
58668;BME280;59852;43.086;25.634;2023-04-23T11:48:47;98777.13;;;18.10;35.84
58668;BME280;59852;43.086;25.634;2023-04-23T11:51:12;98760.75;;;18.40;35.56
58668;BME280;59852;43.086;25.634;2023-04-23T11:53:43;98753.34;;;18.52;36.21
58668;BME280;59852;43.086;25.634;2023-04-23T11:56:08;98765.13;;;18.23;36.73
58668;BME280;59852;43.086;25.634;2023-04-23T11:58:34;98764.28;;;18.49;34.24
58668;BME280;59852;43.086;25.634;2023-04-23T12:00:59;98766.13;;;17.70;35.21
58668;BME280;59852;43.086;25.634;2023-04-23T12:03:26;98757.88;;;17.73;36.63
58668;BME280;59852;43.086;25.634;2023-04-23T12:05:52;98765.16;;;17.80;35.99
58668;BME280;59852;43.086;25.634;2023-04-23T12:08:20;98759.50;;;17.57;36.15
58668;BME280;59852;43.086;25.634;2023-04-23T12:10:52;98752.56;;;17.73;36.42
58668;BME280;59852;43.086;25.634;2023-04-23T12:13:22;98754.91;;;17.59;36.43
58668;BME280;59852;43.086;25.634;2023-04-23T12:15:49;98752.56;;;17.56;37.06
58668;BME280;59852;43.086;25.634;2023-04-23T12:18:15;98753.16;;;17.49;37.19
58668;BME280;59852;43.086;25.634;2023-04-23T12:20:41;98750.91;;;17.72;36.88
58668;BME280;59852;43.086;25.634;2023-04-23T12:23:06;98751.94;;;17.80;36.83
58668;BME280;59852;43.086;25.634;2023-04-23T12:25:32;98745.31;;;17.40;36.16
58668;BME280;59852;43.086;25.634;2023-04-23T12:27:58;98736.28;;;17.25;36.50
58668;BME280;59852;43.086;25.634;2023-04-23T12:30:27;98745.63;;;17.19;37.32
58668;BME280;59852;43.086;25.634;2023-04-23T12:32:57;98741.09;;;17.29;37.49
58668;BME280;59852;43.086;25.634;2023-04-23T12:35:36;98737.63;;;17.29;36.05
58668;BME280;59852;43.086;25.634;2023-04-23T12:38:03;98727.13;;;17.19;37.34
58668;BME280;59852;43.086;25.634;2023-04-23T12:40:28;98741.88;;;17.22;37.42
58668;BME280;59852;43.086;25.634;2023-04-23T12:42:54;98727.44;;;17.16;36.97
58668;BME280;59852;43.086;25.634;2023-04-23T12:45:19;98734.53;;;17.15;37.49
58668;BME280;59852;43.086;25.634;2023-04-23T12:47:45;98727.84;;;17.03;37.15
58668;BME280;59852;43.086;25.634;2023-04-23T12:50:10;98723.81;;;16.99;37.87
58668;BME280;59852;43.086;25.634;2023-04-23T12:52:36;98731.97;;;17.06;38.58
58668;BME280;59852;43.086;25.634;2023-04-23T12:55:02;98731.31;;;17.04;37.99
58668;BME280;59852;43.086;25.634;2023-04-23T12:57:29;98729.25;;;16.98;40.66
58668;BME280;59852;43.086;25.634;2023-04-23T12:59:54;98729.47;;;16.86;42.69
58668;BME280;59852;43.086;25.634;2023-04-23T13:02:20;98739.88;;;16.60;45.78